createdAt,value
2023-01-17T00:00:12.000Z,1.4
2023-01-17T00:01:20.555Z,1.1
2023-01-17T00:02:28.929Z,1.1
2023-01-17T00:03:37.297Z,1.1
2023-01-17T00:04:45.858Z,0.6
2023-01-17T00:05:54.259Z,0.6
2023-01-17T00:07:02.682Z,0.6
2023-01-17T00:08:11.240Z,0.5
2023-01-17T00:09:19.603Z,0.5
2023-01-17T00:10:27.959Z,0.5
2023-01-17T00:11:36.560Z,0.4
2023-01-17T00:12:44.886Z,0.4
2023-01-17T00:13:53.237Z,0.4
2023-01-17T00:15:01.872Z,0.6
2023-01-17T00:16:10.209Z,0.6
2023-01-17T00:17:18.566Z,0.6
2023-01-17T00:18:27.135Z,0.3
2023-01-17T00:19:35.517Z,0.3
2023-01-17T00:20:43.872Z,0.3
2023-01-17T00:21:52.452Z,1
2023-01-17T00:23:00.786Z,1
2023-01-17T00:24:09.182Z,1
2023-01-17T00:25:17.724Z,0.6
2023-01-17T00:26:26.125Z,0.6
2023-01-17T00:27:34.460Z,0.6
2023-01-17T00:28:43.100Z,0.6
2023-01-17T00:29:51.451Z,0.6
2023-01-17T00:30:59.893Z,0.6
2023-01-17T00:32:08.397Z,0.4
2023-01-17T00:33:16.774Z,0.4
2023-01-17T00:34:25.163Z,0.4
2023-01-17T00:35:33.763Z,0.5
2023-01-17T00:36:42.129Z,0.5
2023-01-17T00:37:50.503Z,0.5
2023-01-17T00:38:59.018Z,1.8
2023-01-17T00:40:07.408Z,1.8
2023-01-17T00:41:15.773Z,1.8
2023-01-17T00:42:24.344Z,0.7
2023-01-17T00:43:32.675Z,0.7
2023-01-17T00:44:41.052Z,0.7
2023-01-17T00:45:49.638Z,0.8
2023-01-17T00:46:57.988Z,0.8
2023-01-17T00:48:06.365Z,0.8
2023-01-17T00:49:14.934Z,0.5
2023-01-17T00:50:23.296Z,0.5
2023-01-17T00:51:31.663Z,0.5
2023-01-17T00:52:40.214Z,0.7
2023-01-17T00:53:48.610Z,0.7
2023-01-17T00:54:56.915Z,0.7
2023-01-17T00:56:05.482Z,1.1
2023-01-17T00:57:13.851Z,1.1
2023-01-17T00:58:22.173Z,1.1
2023-01-17T00:59:30.730Z,0.5
2023-01-17T01:00:39.115Z,0.5
2023-01-17T01:01:47.597Z,0.5
2023-01-17T01:02:56.014Z,0.4
2023-01-17T01:04:04.374Z,0.4
2023-01-17T01:05:12.731Z,0.4
2023-01-17T01:06:21.292Z,1.3
2023-01-17T01:07:29.645Z,1.3
2023-01-17T01:08:38.010Z,1.3
2023-01-17T01:09:46.639Z,0.8
2023-01-17T01:10:54.981Z,0.8
2023-01-17T01:12:03.359Z,0.8
2023-01-17T01:13:11.916Z,0.9
2023-01-17T01:14:20.286Z,0.9
2023-01-17T01:15:28.675Z,0.9
2023-01-17T01:16:37.277Z,1.4
2023-01-17T01:17:45.544Z,1.4
2023-01-17T01:18:53.898Z,1.4
2023-01-17T01:20:02.468Z,1.5
2023-01-17T01:21:10.860Z,1.5
2023-01-17T01:22:19.205Z,1.5
2023-01-17T01:23:27.777Z,1.3
2023-01-17T01:24:36.159Z,1.3
2023-01-17T01:25:44.517Z,1.3
2023-01-17T01:26:53.105Z,1.8
2023-01-17T01:28:01.455Z,1.8
2023-01-17T01:29:09.779Z,1.8
2023-01-17T01:30:18.355Z,0.6
2023-01-17T01:31:27.466Z,0.6
2023-01-17T01:32:35.829Z,0.6
2023-01-17T01:33:44.334Z,0.8
2023-01-17T01:34:52.718Z,0.8
2023-01-17T01:36:01.082Z,0.8
2023-01-17T01:37:09.627Z,0.9
2023-01-17T01:38:17.983Z,0.9
2023-01-17T01:39:26.351Z,0.9
2023-01-17T01:40:34.913Z,1.5
2023-01-17T01:41:43.324Z,1.5
2023-01-17T01:42:51.649Z,1.5
2023-01-17T01:44:00.208Z,1.7
2023-01-17T01:45:08.589Z,1.7
2023-01-17T01:46:16.936Z,1.7
2023-01-17T01:47:25.517Z,0.9
2023-01-17T01:48:33.887Z,0.9
2023-01-17T01:49:42.224Z,0.9
2023-01-17T01:50:50.810Z,1.1
2023-01-17T01:51:59.173Z,1.1
2023-01-17T01:53:07.517Z,1.1
2023-01-17T01:54:16.078Z,1.9
2023-01-17T01:55:24.432Z,1.9
2023-01-17T01:56:32.785Z,1.9
2023-01-17T01:57:41.385Z,1.4
2023-01-17T01:58:49.743Z,1.4
2023-01-17T01:59:58.092Z,1.4
2023-01-17T02:01:06.804Z,2.3
2023-01-17T02:02:15.016Z,2.3
2023-01-17T02:03:23.382Z,2.3
2023-01-17T02:04:31.959Z,3
2023-01-17T02:05:40.351Z,3
2023-01-17T02:06:48.728Z,3
2023-01-17T02:07:57.302Z,2.1
2023-01-17T02:09:05.647Z,2.1
2023-01-17T02:10:14.016Z,2.1
2023-01-17T02:11:22.581Z,1.8
2023-01-17T02:12:30.929Z,1.8
2023-01-17T02:13:39.303Z,1.8
2023-01-17T02:14:47.865Z,2.4
2023-01-17T02:15:56.225Z,2.4
2023-01-17T02:17:04.595Z,2.4
2023-01-17T02:18:13.170Z,2
2023-01-17T02:19:21.523Z,2
2023-01-17T02:20:29.905Z,2
2023-01-17T02:21:38.466Z,1.9
2023-01-17T02:22:46.799Z,1.9
2023-01-17T02:23:55.179Z,1.9
2023-01-17T02:25:03.755Z,3
2023-01-17T02:26:12.124Z,3
2023-01-17T02:27:20.487Z,3
2023-01-17T02:28:29.059Z,2
2023-01-17T02:29:37.455Z,2
2023-01-17T02:30:45.759Z,2
2023-01-17T02:31:54.391Z,2.6
2023-01-17T02:33:02.707Z,2.6
2023-01-17T02:34:11.075Z,2.6
2023-01-17T02:35:19.646Z,2.6
2023-01-17T02:36:28.044Z,2.6
2023-01-17T02:37:36.377Z,2.6
2023-01-17T02:38:44.928Z,4.3
2023-01-17T02:39:53.310Z,4.3
2023-01-17T02:41:01.668Z,4.3
2023-01-17T02:42:10.231Z,3
2023-01-17T02:43:18.569Z,3
2023-01-17T02:44:26.920Z,3
2023-01-17T02:45:35.576Z,4.2
2023-01-17T02:46:43.879Z,4.2
2023-01-17T02:47:52.226Z,4.2
2023-01-17T02:49:00.791Z,4.5
2023-01-17T02:50:09.134Z,4.5
2023-01-17T02:51:17.486Z,4.5
2023-01-17T02:52:26.043Z,3
2023-01-17T02:53:34.399Z,3
2023-01-17T02:54:42.769Z,3
2023-01-17T02:55:51.308Z,3.3
2023-01-17T02:56:59.708Z,3.3
2023-01-17T02:58:08.056Z,3.3
2023-01-17T02:59:16.607Z,2.8
2023-01-17T03:00:24.987Z,2.8
2023-01-17T03:01:33.483Z,2.8
2023-01-17T03:02:41.977Z,3.3
2023-01-17T03:03:50.247Z,3.3
2023-01-17T03:04:58.607Z,3.3
2023-01-17T03:06:07.157Z,2.5
2023-01-17T03:07:15.524Z,2.5
2023-01-17T03:08:23.876Z,2.5
2023-01-17T03:09:32.436Z,3.1
2023-01-17T03:10:40.786Z,3.1
2023-01-17T03:11:49.161Z,3.1
2023-01-17T03:12:57.726Z,3.9
2023-01-17T03:14:06.082Z,3.9
2023-01-17T03:15:14.460Z,3.9
2023-01-17T03:16:23.090Z,3.3
2023-01-17T03:17:31.363Z,3.3
2023-01-17T03:18:39.728Z,3.3
2023-01-17T03:19:48.288Z,4.2
2023-01-17T03:20:56.676Z,4.2
2023-01-17T03:22:05.013Z,4.2
2023-01-17T03:23:13.581Z,3.6
2023-01-17T03:24:21.936Z,3.6
2023-01-17T03:25:30.300Z,3.6
2023-01-17T03:26:38.891Z,3.2
2023-01-17T03:27:47.238Z,3.2
2023-01-17T03:28:55.586Z,3.2
2023-01-17T03:30:04.182Z,4.7
2023-01-17T03:31:12.516Z,4.7
2023-01-17T03:32:20.868Z,4.7
2023-01-17T03:33:29.458Z,3
2023-01-17T03:34:37.776Z,3
2023-01-17T03:35:46.141Z,3
2023-01-17T03:36:54.695Z,3.4
2023-01-17T03:38:03.049Z,3.4
2023-01-17T03:39:11.399Z,3.4
2023-01-17T03:40:19.966Z,4.2
2023-01-17T03:41:28.338Z,4.2
2023-01-17T03:42:36.714Z,4.2
2023-01-17T03:43:45.259Z,3.1
2023-01-17T03:44:53.633Z,3.1
2023-01-17T03:46:02.057Z,3.1
2023-01-17T03:47:10.549Z,2.3
2023-01-17T03:48:18.874Z,2.3
2023-01-17T03:49:27.629Z,2.3
2023-01-17T03:50:35.845Z,2.9
2023-01-17T03:51:44.166Z,2.9
2023-01-17T03:52:52.504Z,2.9
2023-01-17T03:54:01.054Z,4.3
2023-01-17T03:55:09.412Z,4.3
2023-01-17T03:56:17.764Z,4.3
2023-01-17T03:57:26.308Z,2.7
2023-01-17T03:58:34.677Z,2.7
2023-01-17T03:59:42.999Z,2.7
2023-01-17T04:00:51.591Z,3.7
2023-01-17T04:02:00.025Z,3.7
2023-01-17T04:03:08.291Z,3.7
2023-01-17T04:04:16.856Z,2.6
2023-01-17T04:05:25.229Z,2.6
2023-01-17T04:06:33.549Z,2.6
2023-01-17T04:07:42.111Z,2.6
2023-01-17T04:08:50.464Z,2.6
2023-01-17T04:09:58.813Z,2.6
2023-01-17T04:11:07.364Z,2.8
2023-01-17T04:12:15.714Z,2.8
2023-01-17T04:13:24.065Z,2.8
2023-01-17T04:14:32.633Z,3.4
2023-01-17T04:15:40.986Z,3.4
2023-01-17T04:16:49.365Z,3.4
2023-01-17T04:17:57.867Z,2.5
2023-01-17T04:19:06.224Z,2.5
2023-01-17T04:20:14.581Z,2.5
2023-01-17T04:21:23.139Z,3.7
2023-01-17T04:22:31.472Z,3.7
2023-01-17T04:23:39.814Z,3.7
2023-01-17T04:24:48.369Z,4
2023-01-17T04:25:56.752Z,4
2023-01-17T04:27:05.116Z,4
2023-01-17T04:28:13.660Z,3.4
2023-01-17T04:29:22.139Z,3.4
2023-01-17T04:30:30.521Z,3.4
2023-01-17T04:31:39.062Z,4.1
2023-01-17T04:32:47.411Z,4.1
2023-01-17T04:33:55.728Z,4.1
2023-01-17T04:35:04.287Z,3.6
2023-01-17T04:36:12.731Z,3.6
2023-01-17T04:37:21.250Z,3.6
2023-01-17T04:38:30.112Z,3
2023-01-17T04:39:38.455Z,3
2023-01-17T04:40:46.797Z,3
2023-01-17T04:41:55.345Z,3.5
2023-01-17T04:43:03.695Z,3.5
2023-01-17T04:44:12.043Z,3.5
2023-01-17T04:45:20.600Z,3.5
2023-01-17T04:46:29.015Z,3.5
2023-01-17T04:47:37.306Z,3.5
2023-01-17T04:48:45.911Z,4.4
2023-01-17T04:49:54.230Z,4.4
2023-01-17T04:51:02.581Z,4.4
2023-01-17T04:52:11.142Z,2.8
2023-01-17T04:53:19.513Z,2.8
2023-01-17T04:54:27.827Z,2.8
2023-01-17T04:55:36.411Z,3.5
2023-01-17T04:56:44.762Z,3.5
2023-01-17T04:57:53.092Z,3.5
2023-01-17T04:59:01.649Z,5.3
2023-01-17T05:00:10.000Z,5.3
2023-01-17T05:01:18.414Z,5.3
2023-01-17T05:02:26.943Z,3.4
2023-01-17T05:03:35.228Z,3.4
2023-01-17T05:04:43.581Z,3.4
2023-01-17T05:05:52.138Z,4.3
2023-01-17T05:07:00.492Z,4.3
2023-01-17T05:08:08.833Z,4.3
2023-01-17T05:09:17.436Z,3.7
2023-01-17T05:10:25.799Z,3.7
2023-01-17T05:11:34.152Z,3.7
2023-01-17T05:12:42.700Z,4.2
2023-01-17T05:13:51.047Z,4.2
2023-01-17T05:14:59.409Z,4.2
2023-01-17T05:16:08.032Z,3.8
2023-01-17T05:17:16.348Z,3.8
2023-01-17T05:18:24.667Z,3.8
2023-01-17T05:19:33.275Z,3.8
2023-01-17T05:20:41.637Z,3.8
2023-01-17T05:21:50.022Z,3.8
2023-01-17T05:22:58.607Z,2.8
2023-01-17T05:24:06.956Z,2.8
2023-01-17T05:25:15.374Z,2.8
2023-01-17T05:26:23.962Z,3.1
2023-01-17T05:27:32.331Z,3.1
2023-01-17T05:28:40.665Z,3.1
2023-01-17T05:29:49.311Z,4
2023-01-17T05:30:57.705Z,4
2023-01-17T05:32:06.086Z,4
2023-01-17T05:33:14.629Z,3
2023-01-17T05:34:22.984Z,3
2023-01-17T05:35:31.341Z,3
2023-01-17T05:36:39.910Z,4.5
2023-01-17T05:37:48.223Z,4.5
2023-01-17T05:38:56.578Z,4.5
2023-01-17T05:40:05.160Z,5.6
2023-01-17T05:41:13.552Z,5.6
2023-01-17T05:42:21.851Z,5.6
2023-01-17T05:43:30.404Z,15.4
2023-01-17T05:44:38.768Z,15.4
2023-01-17T05:45:47.104Z,15.4
2023-01-17T05:46:55.672Z,6.1
2023-01-17T05:48:04.020Z,6.1
2023-01-17T05:49:12.396Z,6.1
2023-01-17T05:50:20.980Z,6.1
2023-01-17T05:51:29.324Z,6.1
2023-01-17T05:52:37.655Z,6.1
2023-01-17T05:53:46.221Z,7.5
2023-01-17T05:54:54.554Z,7.5
2023-01-17T05:56:02.907Z,7.5
2023-01-17T05:57:11.528Z,4.3
2023-01-17T05:58:19.821Z,4.3
2023-01-17T05:59:36.795Z,4.3
2023-01-17T06:00:36.714Z,4
2023-01-17T06:01:45.049Z,4
2023-01-17T06:02:53.467Z,4
2023-01-17T06:04:01.936Z,6.5
2023-01-17T06:05:10.312Z,6.5
2023-01-17T06:06:18.644Z,6.5
2023-01-17T06:07:27.199Z,9.6
2023-01-17T06:08:35.552Z,9.6
2023-01-17T06:09:43.893Z,9.6
2023-01-17T06:10:52.464Z,5.5
2023-01-17T06:12:00.824Z,5.5
2023-01-17T06:13:09.193Z,5.5
2023-01-17T06:14:17.756Z,3.7
2023-01-17T06:15:26.106Z,3.7
2023-01-17T06:16:34.463Z,3.7
2023-01-17T06:17:43.059Z,5.2
2023-01-17T06:18:51.399Z,5.2
2023-01-17T06:19:59.881Z,5.2
2023-01-17T06:21:08.416Z,9.5
2023-01-17T06:22:16.923Z,9.5
2023-01-17T06:23:25.287Z,9.5
2023-01-17T06:24:33.943Z,16
2023-01-17T06:25:42.357Z,16
2023-01-17T06:26:50.703Z,16
2023-01-17T06:27:59.268Z,8.6
2023-01-17T06:29:07.654Z,8.6
2023-01-17T06:30:16.011Z,8.6
2023-01-17T06:31:24.585Z,6.1
2023-01-17T06:32:32.920Z,6.1
2023-01-17T06:33:41.271Z,6.1
2023-01-17T06:34:49.818Z,7.5
2023-01-17T06:35:58.195Z,7.5
2023-01-17T06:37:06.548Z,7.5
2023-01-17T06:38:15.110Z,13.6
2023-01-17T06:39:23.455Z,13.6
2023-01-17T06:40:31.823Z,13.6
2023-01-17T06:41:40.357Z,6.1
2023-01-17T06:42:48.718Z,6.1
2023-01-17T06:43:57.052Z,6.1
2023-01-17T06:45:05.641Z,4.8
2023-01-17T06:46:14.009Z,4.8
2023-01-17T06:47:22.307Z,4.8
2023-01-17T06:48:30.872Z,5.3
2023-01-17T06:49:39.203Z,5.3
2023-01-17T06:50:47.572Z,5.3
2023-01-17T06:51:56.113Z,4.2
2023-01-17T06:53:04.508Z,4.2
2023-01-17T06:54:12.815Z,4.2
2023-01-17T06:55:21.367Z,3.5
2023-01-17T06:56:29.705Z,3.5
2023-01-17T06:57:38.050Z,3.5
2023-01-17T06:58:46.590Z,3.3
2023-01-17T06:59:54.952Z,3.3
2023-01-17T07:01:03.429Z,3.3
2023-01-17T07:02:11.892Z,4.7
2023-01-17T07:03:20.226Z,4.7
2023-01-17T07:04:28.551Z,4.7
2023-01-17T07:05:37.121Z,7.4
2023-01-17T07:06:45.480Z,7.4
2023-01-17T07:07:53.818Z,7.4
2023-01-17T07:09:02.379Z,5.7
2023-01-17T07:10:10.738Z,5.7
2023-01-17T07:11:19.102Z,5.7
2023-01-17T07:12:27.649Z,3.7
2023-01-17T07:13:36.469Z,3.7
2023-01-17T07:14:44.341Z,3.7
2023-01-17T07:15:52.892Z,3.3
2023-01-17T07:17:01.261Z,3.3
2023-01-17T07:18:09.590Z,3.3
2023-01-17T07:19:18.136Z,4.1
2023-01-17T07:20:26.486Z,4.1
2023-01-17T07:21:34.836Z,4.1
2023-01-17T07:22:43.401Z,3.3
2023-01-17T07:23:51.750Z,3.3
2023-01-17T07:25:00.152Z,3.3
2023-01-17T07:26:08.696Z,5.3
2023-01-17T07:27:17.027Z,5.3
2023-01-17T07:28:25.377Z,5.3
2023-01-17T07:29:33.955Z,3.8
2023-01-17T07:30:42.298Z,3.8
2023-01-17T07:31:50.643Z,3.8
2023-01-17T07:32:59.215Z,3.7
2023-01-17T07:34:07.528Z,3.7
2023-01-17T07:35:15.886Z,3.7
2023-01-17T07:36:24.447Z,2.7
2023-01-17T07:37:32.797Z,2.7
2023-01-17T07:38:41.139Z,2.7
2023-01-17T07:39:49.706Z,4.5
2023-01-17T07:40:58.076Z,4.5
2023-01-17T07:42:06.447Z,4.5
2023-01-17T07:43:15.001Z,4.2
2023-01-17T07:44:23.333Z,4.2
2023-01-17T07:45:31.705Z,4.2
2023-01-17T07:46:40.271Z,11.1
2023-01-17T07:47:48.607Z,11.1
2023-01-17T07:48:56.977Z,11.1
2023-01-17T07:50:05.526Z,13.8
2023-01-17T07:51:13.862Z,13.8
2023-01-17T07:52:22.203Z,13.8
2023-01-17T07:53:30.758Z,8.5
2023-01-17T07:54:39.104Z,8.5
2023-01-17T07:55:47.471Z,8.5
2023-01-17T07:56:56.012Z,9.7
2023-01-17T07:58:04.401Z,9.7
2023-01-17T07:59:12.718Z,9.7
2023-01-17T08:00:21.310Z,10.8
2023-01-17T08:01:29.694Z,10.8
2023-01-17T08:02:37.995Z,10.8
2023-01-17T08:03:46.591Z,4.7
2023-01-17T08:04:54.913Z,4.7
2023-01-17T08:06:03.245Z,4.7
2023-01-17T08:07:11.809Z,5.5
2023-01-17T08:08:20.150Z,5.5
2023-01-17T08:09:28.502Z,5.5
2023-01-17T08:10:37.084Z,6
2023-01-17T08:11:45.418Z,6
2023-01-17T08:12:53.775Z,6
2023-01-17T08:14:02.334Z,3.9
2023-01-17T08:15:10.759Z,3.9
2023-01-17T08:16:19.203Z,3.9
2023-01-17T08:17:27.826Z,5.3
2023-01-17T08:18:36.161Z,5.3
2023-01-17T08:19:44.537Z,5.3
2023-01-17T08:20:53.160Z,35.099998
2023-01-17T08:22:01.510Z,35.099998
2023-01-17T08:23:09.856Z,35.099998
2023-01-17T08:24:18.404Z,3.7
2023-01-17T08:25:26.841Z,3.7
2023-01-17T08:26:35.166Z,3.7
2023-01-17T08:27:43.737Z,6
2023-01-17T08:28:52.061Z,6
2023-01-17T08:30:00.427Z,6
2023-01-17T08:31:09.011Z,4.6
2023-01-17T08:32:17.365Z,4.6
2023-01-17T08:33:25.724Z,4.6
2023-01-17T08:34:34.989Z,5.8
2023-01-17T08:35:43.338Z,5.8
2023-01-17T08:36:51.746Z,5.8
2023-01-17T08:38:00.237Z,5.2
2023-01-17T08:39:08.589Z,5.2
2023-01-17T08:40:17.487Z,5.2
2023-01-17T08:41:26.028Z,3.6
2023-01-17T08:42:34.401Z,3.6
2023-01-17T08:43:42.754Z,3.6
2023-01-17T08:44:51.348Z,4.9
2023-01-17T08:45:59.745Z,4.9
2023-01-17T08:47:08.083Z,4.9
2023-01-17T08:48:16.648Z,4.3
2023-01-17T08:49:24.995Z,4.3
2023-01-17T08:50:34.240Z,4.3
2023-01-17T08:51:42.809Z,5.1
2023-01-17T08:52:51.172Z,5.1
2023-01-17T08:53:59.481Z,5.1
2023-01-17T08:55:08.037Z,5.6
2023-01-17T08:56:16.400Z,5.6
2023-01-17T08:57:24.745Z,5.6
2023-01-17T08:58:33.302Z,4
2023-01-17T08:59:41.677Z,4
2023-01-17T09:00:50.157Z,4
2023-01-17T09:01:58.803Z,4.9
2023-01-17T09:03:06.987Z,4.9
2023-01-17T09:04:15.349Z,4.9
2023-01-17T09:05:23.907Z,4.1
2023-01-17T09:06:32.251Z,4.1
2023-01-17T09:07:40.600Z,4.1
2023-01-17T09:08:49.183Z,5.5
2023-01-17T09:09:57.494Z,5.5
2023-01-17T09:11:05.839Z,5.5
2023-01-17T09:12:14.399Z,5
2023-01-17T09:13:22.740Z,5
2023-01-17T09:14:31.095Z,5
2023-01-17T09:15:39.649Z,3.2
2023-01-17T09:16:48.048Z,3.2
2023-01-17T09:17:56.353Z,3.2
2023-01-17T09:19:04.920Z,4.3
2023-01-17T09:20:13.267Z,4.3
2023-01-17T09:21:21.611Z,4.3
2023-01-17T09:22:30.156Z,4.8
2023-01-17T09:23:38.509Z,4.8
2023-01-17T09:24:46.931Z,4.8
2023-01-17T09:25:55.473Z,5.6
2023-01-17T09:27:03.818Z,5.6
2023-01-17T09:28:12.143Z,5.6
2023-01-17T09:29:20.720Z,3.8
2023-01-17T09:30:29.142Z,3.8
2023-01-17T09:31:37.440Z,3.8
2023-01-17T09:32:46.010Z,4.6
2023-01-17T09:33:54.348Z,4.6
2023-01-17T09:35:02.759Z,4.6
2023-01-17T09:36:11.317Z,3.8
2023-01-17T09:37:19.697Z,3.8
2023-01-17T09:38:28.033Z,3.8
2023-01-17T09:39:36.611Z,3.1
2023-01-17T09:40:45.006Z,3.1
2023-01-17T09:41:53.314Z,3.1
2023-01-17T09:43:01.886Z,3.8
2023-01-17T09:44:10.284Z,3.8
2023-01-17T09:45:18.686Z,3.8
2023-01-17T09:46:27.245Z,2.9
2023-01-17T09:47:35.644Z,2.9
2023-01-17T09:48:43.986Z,2.9
2023-01-17T09:49:52.560Z,4.1
2023-01-17T09:51:00.935Z,4.1
2023-01-17T09:52:09.328Z,4.1
2023-01-17T09:53:17.859Z,4.4
2023-01-17T09:54:26.222Z,4.4
2023-01-17T09:55:34.630Z,4.4
2023-01-17T09:56:43.208Z,3.7
2023-01-17T09:57:51.529Z,3.7
2023-01-17T09:58:59.898Z,3.7
2023-01-17T10:00:08.496Z,3.8
2023-01-17T10:01:17.027Z,3.8
2023-01-17T10:02:26.569Z,3.8
2023-01-17T10:03:33.863Z,3
2023-01-17T10:04:42.175Z,3
2023-01-17T10:05:50.518Z,3
2023-01-17T10:06:59.082Z,3.1
2023-01-17T10:08:07.430Z,3.1
2023-01-17T10:09:15.799Z,3.1
2023-01-17T10:10:24.374Z,2.5
2023-01-17T10:11:32.723Z,2.5
2023-01-17T10:12:41.108Z,2.5
2023-01-17T10:13:49.655Z,4
2023-01-17T10:14:58.009Z,4
2023-01-17T10:16:06.374Z,4
2023-01-17T10:17:14.931Z,3.3
2023-01-17T10:18:29.793Z,3.3
2023-01-17T10:19:31.641Z,3.3
2023-01-17T10:20:40.191Z,3
2023-01-17T10:21:48.571Z,3
2023-01-17T10:22:56.901Z,3
2023-01-17T10:24:05.461Z,3.4
2023-01-17T10:25:13.815Z,3.4
2023-01-17T10:26:22.277Z,3.4
2023-01-17T10:27:30.808Z,3.8
2023-01-17T10:28:39.186Z,3.8
2023-01-17T10:29:47.531Z,3.8
2023-01-17T10:30:56.143Z,3.5
2023-01-17T10:32:04.461Z,3.5
2023-01-17T10:33:12.873Z,3.5
2023-01-17T10:34:21.485Z,3.8
2023-01-17T10:35:29.865Z,3.8
2023-01-17T10:36:38.223Z,3.8
2023-01-17T10:37:46.827Z,4.3
2023-01-17T10:38:55.179Z,4.3
2023-01-17T10:40:03.553Z,4.3
2023-01-17T10:41:12.119Z,2.9
2023-01-17T10:42:20.456Z,2.9
2023-01-17T10:43:28.811Z,2.9
2023-01-17T10:44:37.460Z,4.4
2023-01-17T10:45:45.881Z,4.4
2023-01-17T10:46:54.144Z,4.4
2023-01-17T10:48:02.699Z,3.7
2023-01-17T10:49:11.054Z,3.7
2023-01-17T10:50:19.443Z,3.7
2023-01-17T10:51:27.956Z,6.1
2023-01-17T10:52:36.358Z,6.1
2023-01-17T10:53:44.782Z,6.1
2023-01-17T10:54:53.350Z,3
2023-01-17T10:56:01.738Z,3
2023-01-17T10:57:10.077Z,3
2023-01-17T10:58:18.637Z,3.6
2023-01-17T10:59:26.987Z,3.6
2023-01-17T11:00:35.394Z,3.6
2023-01-17T11:01:43.965Z,3.5
2023-01-17T11:02:52.389Z,3.5
2023-01-17T11:04:00.589Z,3.5
2023-01-17T11:05:10.579Z,5.1
2023-01-17T11:06:18.921Z,5.1
2023-01-17T11:07:27.261Z,5.1
2023-01-17T11:08:35.817Z,5
2023-01-17T11:09:44.191Z,5
2023-01-17T11:10:52.511Z,5
2023-01-17T11:12:01.057Z,4
2023-01-17T11:13:09.397Z,4
2023-01-17T11:14:17.752Z,4
2023-01-17T11:15:26.401Z,3.7
2023-01-17T11:16:34.692Z,3.7
2023-01-17T11:17:43.020Z,3.7
2023-01-17T11:18:51.588Z,3.8
2023-01-17T11:19:59.939Z,3.8
2023-01-17T11:21:08.300Z,3.8
2023-01-17T11:22:16.853Z,4.8
2023-01-17T11:23:25.201Z,4.8
2023-01-17T11:24:33.570Z,4.8
2023-01-17T11:25:42.123Z,3.4
2023-01-17T11:26:50.483Z,3.4
2023-01-17T11:27:58.833Z,3.4
2023-01-17T11:29:07.402Z,3.8
2023-01-17T11:30:15.756Z,3.8
2023-01-17T11:31:24.109Z,3.8
2023-01-17T11:32:32.658Z,3.8
2023-01-17T11:33:40.972Z,3.8
2023-01-17T11:34:49.323Z,3.8
2023-01-17T11:35:57.871Z,3.9
2023-01-17T11:37:06.219Z,3.9
2023-01-17T11:38:14.584Z,3.9
2023-01-17T11:39:23.144Z,2.2
2023-01-17T11:40:31.499Z,2.2
2023-01-17T11:41:39.834Z,2.2
2023-01-17T11:42:48.408Z,3.2
2023-01-17T11:43:56.744Z,3.2
2023-01-17T11:45:05.107Z,3.2
2023-01-17T11:46:13.680Z,3
2023-01-17T11:47:22.053Z,3
2023-01-17T11:48:30.437Z,3
2023-01-17T11:49:38.960Z,3.4
2023-01-17T11:50:47.339Z,3.4
2023-01-17T11:51:55.674Z,3.4
2023-01-17T11:53:04.257Z,2.9
2023-01-17T11:54:12.605Z,2.9
2023-01-17T11:55:20.969Z,2.9
2023-01-17T11:56:29.531Z,2.4
2023-01-17T11:57:37.898Z,2.4
2023-01-17T11:58:46.240Z,2.4
2023-01-17T11:59:54.809Z,2.9
2023-01-17T12:01:03.175Z,2.9
2023-01-17T12:02:11.503Z,2.9
2023-01-17T12:03:20.073Z,2.9
2023-01-17T12:04:28.436Z,2.9
2023-01-17T12:05:36.770Z,2.9
2023-01-17T12:06:57.076Z,3.4
2023-01-17T12:07:53.697Z,3.4
2023-01-17T12:09:02.049Z,3.4
2023-01-17T12:10:10.613Z,3.5
2023-01-17T12:11:18.964Z,3.5
2023-01-17T12:12:27.313Z,3.5
2023-01-17T12:13:35.868Z,3.2
2023-01-17T12:14:44.204Z,3.2
2023-01-17T12:15:52.629Z,3.2
2023-01-17T12:17:01.156Z,3.4
2023-01-17T12:18:09.458Z,3.4
2023-01-17T12:19:17.831Z,3.4
2023-01-17T12:20:26.394Z,4
2023-01-17T12:21:34.718Z,4
2023-01-17T12:22:43.063Z,4
2023-01-17T12:23:51.614Z,2
2023-01-17T12:25:00.005Z,2
2023-01-17T12:26:08.367Z,2
2023-01-17T12:27:16.954Z,3.5
2023-01-17T12:28:25.323Z,3.5
2023-01-17T12:29:33.662Z,3.5
2023-01-17T12:30:42.263Z,2.6
2023-01-17T12:31:50.606Z,2.6
2023-01-17T12:32:58.956Z,2.6
2023-01-17T12:34:08.117Z,3.6
2023-01-17T12:35:15.864Z,3.6
2023-01-17T12:36:24.235Z,3.6
2023-01-17T12:37:32.769Z,3.1
2023-01-17T12:38:41.119Z,3.1
2023-01-17T12:39:49.507Z,3.1
2023-01-17T12:40:58.049Z,2.8
2023-01-17T12:42:06.618Z,2.8
2023-01-17T12:43:14.973Z,2.8
2023-01-17T12:44:23.542Z,4.9
2023-01-17T12:45:31.919Z,4.9
2023-01-17T12:46:40.313Z,4.9
2023-01-17T12:47:48.860Z,3.2
2023-01-17T12:48:57.205Z,3.2
2023-01-17T12:50:05.572Z,3.2
2023-01-17T12:51:14.128Z,3
2023-01-17T12:52:22.515Z,3
2023-01-17T12:53:30.807Z,3
2023-01-17T12:54:39.361Z,6.9
2023-01-17T12:55:47.716Z,6.9
2023-01-17T12:56:56.064Z,6.9
2023-01-17T12:58:04.620Z,37.599998
2023-01-17T12:59:12.960Z,37.599998
2023-01-17T13:00:21.426Z,37.599998
2023-01-17T13:01:29.929Z,92.300003
2023-01-17T13:02:38.219Z,92.300003
2023-01-17T13:03:46.563Z,92.300003
2023-01-17T13:04:58.619Z,3.8
2023-01-17T13:06:03.499Z,3.8
2023-01-17T13:07:11.837Z,3.8
2023-01-17T13:08:20.415Z,23.299999
2023-01-17T13:09:28.754Z,23.299999
2023-01-17T13:10:37.111Z,23.299999
2023-01-17T13:11:45.676Z,9.2
2023-01-17T13:12:54.020Z,9.2
2023-01-17T13:14:02.394Z,9.2
2023-01-17T13:15:10.940Z,86.099998
2023-01-17T13:16:19.340Z,86.099998
2023-01-17T13:17:27.634Z,86.099998
2023-01-17T13:18:36.212Z,8.3
2023-01-17T13:19:44.569Z,8.3
2023-01-17T13:20:52.925Z,8.3
2023-01-17T13:22:01.478Z,3.7
2023-01-17T13:23:09.849Z,3.7
2023-01-17T13:24:18.223Z,3.7
2023-01-17T13:25:26.757Z,2.6
2023-01-17T13:26:35.114Z,2.6
2023-01-17T13:27:43.496Z,2.6
2023-01-17T13:28:54.175Z,3.4
2023-01-17T13:30:00.418Z,3.4
2023-01-17T13:31:08.849Z,3.4
2023-01-17T13:32:17.325Z,2.5
2023-01-17T13:33:25.676Z,2.5
2023-01-17T13:34:34.030Z,2.5
2023-01-17T13:35:42.588Z,260.79998
2023-01-17T13:36:50.937Z,260.79998
2023-01-17T13:37:59.270Z,260.79998
2023-01-17T13:39:07.847Z,118.19999
2023-01-17T13:40:16.238Z,118.19999
2023-01-17T13:41:24.557Z,118.19999
2023-01-17T13:42:33.121Z,423.6
2023-01-17T13:43:41.464Z,423.6
2023-01-17T13:44:49.799Z,423.6
2023-01-17T13:45:58.389Z,95.400002
2023-01-17T13:47:06.726Z,95.400002
2023-01-17T13:48:15.063Z,95.400002
2023-01-17T13:49:23.638Z,19.200001
2023-01-17T13:50:31.987Z,19.200001
2023-01-17T13:51:40.332Z,19.200001
2023-01-17T13:52:48.912Z,436.89999
2023-01-17T13:53:57.268Z,436.89999
2023-01-17T13:55:05.590Z,436.89999
2023-01-17T13:56:14.191Z,19.299999
2023-01-17T13:57:22.496Z,19.299999
2023-01-17T13:58:30.856Z,19.299999
2023-01-17T13:59:39.417Z,11.3
2023-01-17T14:00:47.825Z,11.3
2023-01-17T14:01:56.189Z,11.3
2023-01-17T14:03:04.707Z,6.5
2023-01-17T14:04:13.035Z,6.5
2023-01-17T14:05:21.419Z,6.5
2023-01-17T14:06:29.947Z,8.9
2023-01-17T14:07:38.298Z,8.9
2023-01-17T14:08:46.650Z,8.9
2023-01-17T14:09:55.214Z,4.3
2023-01-17T14:11:03.546Z,4.3
2023-01-17T14:12:11.925Z,4.3
2023-01-17T14:13:20.494Z,2.4
2023-01-17T14:14:28.828Z,2.4
2023-01-17T14:15:37.187Z,2.4
2023-01-17T14:16:46.357Z,2.5
2023-01-17T14:17:54.081Z,2.5
2023-01-17T14:19:02.434Z,2.5
2023-01-17T14:20:10.986Z,3.6
2023-01-17T14:21:19.316Z,3.6
2023-01-17T14:22:27.662Z,3.6
2023-01-17T14:23:36.219Z,7.3
2023-01-17T14:24:44.559Z,7.3
2023-01-17T14:25:52.962Z,7.3
2023-01-17T14:27:01.501Z,2.5
2023-01-17T14:28:09.854Z,2.5
2023-01-17T14:29:18.184Z,2.5
2023-01-17T14:30:26.748Z,3.4
2023-01-17T15:04:34.292Z,0
2023-01-17T15:05:42.623Z,0
2023-01-17T15:06:50.944Z,0
2023-01-17T15:07:59.557Z,38.799999
2023-01-17T15:09:07.869Z,38.799999
2023-01-17T15:10:16.230Z,38.799999
2023-01-17T15:11:24.783Z,6.5
2023-01-17T15:12:33.123Z,6.5
2023-01-17T15:13:44.516Z,6.5
2023-01-17T15:14:50.003Z,4.2
2023-01-17T15:15:58.358Z,4.2
2023-01-17T15:17:06.712Z,4.2
2023-01-17T15:18:15.275Z,6
2023-01-17T15:19:23.605Z,6
2023-01-17T15:20:31.979Z,6
2023-01-17T15:21:40.675Z,6.2
2023-01-17T15:22:48.981Z,6.2
2023-01-17T15:23:57.467Z,6.2
2023-01-17T15:25:06.028Z,4
2023-01-17T15:26:14.394Z,4
2023-01-17T15:27:22.733Z,4
2023-01-17T15:28:31.294Z,4
2023-01-17T15:29:39.692Z,4
2023-01-17T15:30:49.183Z,4
2023-01-17T15:31:56.616Z,5.8
2023-01-17T15:33:04.967Z,5.8
2023-01-17T15:34:13.424Z,5.8
2023-01-17T15:35:21.991Z,3.8
2023-01-17T15:36:30.364Z,3.8
2023-01-17T15:37:38.691Z,3.8
2023-01-17T15:38:47.243Z,3.7
2023-01-17T15:39:55.579Z,3.7
2023-01-17T15:41:03.939Z,3.7
2023-01-17T15:42:12.480Z,8.1
2023-01-17T15:43:20.826Z,8.1
2023-01-17T15:44:36.097Z,8.1
2023-01-17T15:45:37.737Z,6.1
2023-01-17T15:46:46.074Z,6.1
2023-01-17T15:47:54.422Z,6.1
2023-01-17T15:49:02.965Z,4.9
2023-01-17T15:50:11.332Z,4.9
2023-01-17T15:51:19.679Z,4.9
2023-01-17T15:52:28.248Z,7
2023-01-17T15:53:36.561Z,7
2023-01-17T15:54:44.895Z,7
2023-01-17T15:55:53.451Z,6
2023-01-17T15:57:01.811Z,6
2023-01-17T15:58:10.142Z,6
2023-01-17T15:59:18.691Z,3.5
2023-01-17T16:00:27.052Z,3.5
2023-01-17T16:01:35.504Z,3.5
2023-01-17T16:02:44.774Z,5.3
2023-01-17T16:03:53.135Z,5.3
2023-01-17T16:05:01.545Z,5.3
2023-01-17T16:06:10.047Z,7.3
2023-01-17T16:07:18.417Z,7.3
2023-01-17T16:08:26.769Z,7.3
2023-01-17T16:09:35.348Z,5.1
2023-01-17T16:12:15.956Z,5.1
2023-01-17T16:13:24.541Z,5.2
2023-01-17T16:14:49.714Z,5.2